createdAt,value
2018-05-16T00:01:42.290Z,18.10
2018-05-16T00:04:10.624Z,16.13
2018-05-16T00:06:38.982Z,18.90
2018-05-16T00:09:07.330Z,18.93
2018-05-16T00:11:35.670Z,18.23
2018-05-16T00:14:04.104Z,15.37
2018-05-16T00:16:33.230Z,21.63
2018-05-16T00:19:01.577Z,16.10
2018-05-16T00:21:30.714Z,36.03
2018-05-16T00:23:59.044Z,25.70
2018-05-16T00:26:27.343Z,16.50
2018-05-16T00:28:56.455Z,32.13
2018-05-16T00:31:24.768Z,24.47
2018-05-16T00:33:53.159Z,20.07
2018-05-16T00:36:21.864Z,23.83
2018-05-16T00:38:50.223Z,20.30
2018-05-16T00:41:18.565Z,16.97
2018-05-16T00:43:46.927Z,16.73
2018-05-16T00:46:15.272Z,22.13
2018-05-16T00:48:43.652Z,30.43
2018-05-16T00:51:29.694Z,23.60
2018-05-16T00:53:58.099Z,19.00
2018-05-16T00:56:26.433Z,22.60
2018-05-16T00:58:55.607Z,16.33
2018-05-16T01:01:24.012Z,25.40
2018-05-16T01:03:53.172Z,22.63
2018-05-16T01:06:21.569Z,18.40
2018-05-16T01:08:49.928Z,21.57
2018-05-16T01:11:18.243Z,22.53
2018-05-16T01:13:47.048Z,30.03
2018-05-16T01:16:15.386Z,23.40
2018-05-16T01:18:43.759Z,31.37
2018-05-16T01:21:12.178Z,28.03
2018-05-16T01:23:41.301Z,25.80
2018-05-16T01:26:09.785Z,28.60
2018-05-16T01:28:38.934Z,19.83
2018-05-16T01:31:08.126Z,26.47
2018-05-16T01:33:36.504Z,27.80
2018-05-16T01:36:05.150Z,24.20
2018-05-16T01:38:33.530Z,31.30
2018-05-16T01:41:01.946Z,31.67
2018-05-16T01:43:30.455Z,18.77
2018-05-16T01:45:59.751Z,28.27
2018-05-16T01:48:28.890Z,27.47
2018-05-16T01:50:57.354Z,27.37
2018-05-16T01:53:25.702Z,32.83
2018-05-16T01:55:54.037Z,18.70
2018-05-16T01:58:22.735Z,17.80
2018-05-16T02:00:51.153Z,20.07
2018-05-16T02:03:19.493Z,16.80
2018-05-16T02:05:47.892Z,19.90
2018-05-16T02:08:16.339Z,22.23
2018-05-16T02:10:44.697Z,20.23
2018-05-16T02:13:13.123Z,18.90
2018-05-16T02:15:41.513Z,18.67
2018-05-16T02:18:09.920Z,22.90
2018-05-16T02:20:38.481Z,21.20
2018-05-16T02:23:06.842Z,21.83
2018-05-16T02:25:35.235Z,23.00
2018-05-16T02:28:03.621Z,24.37
2018-05-16T02:30:31.964Z,28.37
2018-05-16T02:33:00.323Z,23.87
2018-05-16T02:35:28.701Z,24.93
2018-05-16T02:37:57.049Z,25.90
2018-05-16T02:40:26.309Z,20.13
2018-05-16T02:42:55.033Z,22.67
2018-05-16T02:45:23.435Z,23.00
2018-05-16T02:47:51.759Z,27.30
2018-05-16T02:50:20.135Z,18.53
2018-05-16T02:52:48.549Z,31.10
2018-05-16T02:55:16.921Z,25.33
2018-05-16T02:57:45.327Z,25.30
2018-05-16T03:00:14.441Z,21.40
2018-05-16T03:02:42.777Z,30.80
2018-05-16T03:05:11.338Z,22.07
2018-05-16T03:07:39.724Z,20.20
2018-05-16T03:10:08.123Z,30.33
2018-05-16T03:12:36.824Z,20.00
2018-05-16T03:15:06.003Z,20.80
2018-05-16T03:17:34.383Z,32.50
2018-05-16T03:20:02.866Z,23.67
2018-05-16T03:22:31.274Z,25.10
2018-05-16T03:24:59.686Z,23.03
2018-05-16T03:27:28.932Z,23.00
2018-05-16T03:29:58.358Z,20.97
2018-05-16T03:32:27.512Z,23.90
2018-05-16T03:34:55.912Z,29.90
2018-05-16T03:37:24.293Z,31.63
2018-05-16T03:39:52.750Z,28.80
2018-05-16T03:42:21.149Z,27.20
2018-05-16T03:44:49.509Z,30.53
2018-05-16T03:47:17.904Z,38.77
2018-05-16T03:49:46.608Z,34.50
2018-05-16T03:52:15.708Z,27.73
2018-05-16T03:54:44.194Z,30.30
2018-05-16T04:00:41.245Z,34.33
2018-05-16T04:03:27.324Z,28.83
2018-05-16T04:05:55.796Z,33.03
2018-05-16T04:08:24.919Z,24.03
2018-05-16T04:10:53.708Z,26.83
2018-05-16T04:13:22.125Z,37.73
2018-05-16T04:15:50.536Z,32.27
2018-05-16T04:18:18.956Z,30.43
2018-05-16T04:20:48.148Z,30.90
2018-05-16T04:23:16.514Z,39.00
2018-05-16T04:25:44.986Z,32.97
2018-05-16T04:28:13.554Z,30.60
2018-05-16T04:30:41.983Z,28.53
2018-05-16T04:33:10.997Z,34.53
2018-05-16T04:35:40.183Z,32.17
2018-05-16T04:38:08.613Z,34.67
2018-05-16T04:40:37.097Z,31.13
2018-05-16T04:43:05.512Z,32.43
2018-05-16T04:45:33.992Z,33.00
2018-05-16T04:48:02.372Z,26.83
2018-05-16T04:50:30.751Z,27.00
2018-05-16T04:52:59.179Z,31.37
2018-05-16T04:55:28.022Z,26.43
2018-05-16T04:57:56.407Z,32.70
2018-05-16T05:00:24.807Z,26.30
2018-05-16T05:02:53.999Z,39.30
2018-05-16T05:05:23.262Z,27.00
2018-05-16T05:07:51.639Z,28.50
2018-05-16T05:10:20.124Z,47.97
2018-05-16T05:12:48.459Z,34.93
2018-05-16T05:15:16.809Z,31.70
2018-05-16T05:17:46.211Z,30.10
2018-05-16T05:20:15.389Z,26.80
2018-05-16T05:22:44.693Z,60.27
2018-05-16T05:25:13.088Z,36.63
2018-05-16T05:27:41.395Z,30.93
2018-05-16T05:30:09.827Z,25.80
2018-05-16T05:32:38.491Z,23.60
2018-05-16T05:35:06.979Z,33.30
2018-05-16T05:37:35.522Z,28.43
2018-05-16T05:40:04.107Z,32.27
2018-05-16T05:42:33.268Z,25.50
2018-05-16T05:45:02.250Z,23.30
2018-05-16T05:47:30.758Z,30.83
2018-05-16T05:49:59.150Z,31.43
2018-05-16T05:52:27.455Z,21.03
2018-05-16T05:54:55.818Z,37.13
2018-05-16T05:57:24.963Z,24.53
2018-05-16T05:59:53.311Z,31.23
2018-05-16T06:02:21.775Z,17.83
2018-05-16T06:04:50.130Z,31.73
2018-05-16T06:07:19.307Z,24.57
2018-05-16T06:09:47.678Z,29.37
2018-05-16T06:12:16.013Z,33.03
2018-05-16T06:14:45.119Z,36.33
2018-05-16T06:17:13.513Z,29.70
2018-05-16T06:19:41.947Z,26.33
2018-05-16T06:22:10.287Z,33.43
2018-05-16T06:24:39.023Z,30.23
2018-05-16T06:27:08.177Z,26.43
2018-05-16T06:29:37.235Z,24.27
2018-05-16T06:32:05.577Z,22.10
2018-05-16T06:34:33.927Z,32.60
2018-05-16T06:37:03.246Z,23.80
2018-05-16T06:39:31.687Z,28.83
2018-05-16T06:41:59.970Z,27.73
2018-05-16T06:44:28.280Z,21.40
2018-05-16T06:46:57.319Z,20.27
2018-05-16T06:49:25.747Z,26.97
2018-05-16T06:51:54.090Z,33.30
2018-05-16T06:54:22.469Z,21.37
2018-05-16T06:56:50.819Z,19.70
2018-05-16T06:59:19.165Z,24.07
2018-05-16T07:01:47.514Z,29.87
2018-05-16T07:04:15.820Z,19.23
2018-05-16T07:06:44.132Z,24.73
2018-05-16T07:09:12.866Z,23.47
2018-05-16T07:11:41.191Z,30.93
2018-05-16T07:14:09.513Z,22.17
2018-05-16T07:16:37.895Z,20.63
2018-05-16T07:19:06.231Z,16.70
2018-05-16T07:21:34.587Z,26.93
2018-05-16T07:24:02.950Z,30.63
2018-05-16T07:26:31.312Z,19.43
2018-05-16T07:28:59.647Z,15.23
2018-05-16T07:31:28.355Z,17.13
2018-05-16T07:33:56.669Z,23.10
2018-05-16T07:36:24.981Z,20.23
2018-05-16T07:38:53.330Z,20.97
2018-05-16T07:41:21.668Z,23.40
2018-05-16T07:43:49.978Z,18.43
2018-05-16T07:46:18.333Z,21.93
2018-05-16T07:48:47.825Z,14.00
2018-05-16T07:51:16.980Z,35.33
2018-05-16T07:53:45.543Z,21.43
2018-05-16T07:56:13.898Z,21.93
2018-05-16T07:58:42.251Z,28.70
2018-05-16T08:01:10.783Z,17.07
2018-05-16T08:03:39.095Z,23.80
2018-05-16T08:06:07.435Z,22.37
2018-05-16T08:08:35.822Z,12.60
2018-05-16T08:11:04.130Z,27.03
2018-05-16T08:13:33.258Z,27.33
2018-05-16T08:16:02.587Z,26.53
2018-05-16T08:18:30.936Z,21.80
2018-05-16T08:21:00.019Z,19.17
2018-05-16T08:23:28.367Z,16.63
2018-05-16T08:25:56.676Z,22.00
2018-05-16T08:28:24.994Z,19.00
2018-05-16T08:30:53.374Z,14.80
2018-05-16T08:33:21.693Z,19.43
2018-05-16T08:35:50.038Z,13.83
2018-05-16T08:38:18.509Z,17.93
2018-05-16T08:40:46.839Z,19.10
2018-05-16T08:43:15.156Z,20.93
2018-05-16T08:45:43.536Z,15.07
2018-05-16T08:48:12.761Z,14.90
2018-05-16T08:50:41.110Z,78.27
2018-05-16T08:53:10.248Z,18.23
2018-05-16T08:55:38.822Z,12.60
2018-05-16T08:58:07.164Z,18.63
2018-05-16T09:00:36.772Z,11.63
2018-05-16T09:03:05.096Z,9.43
2018-05-16T09:05:33.461Z,9.30
2018-05-16T09:08:01.823Z,13.23
2018-05-16T09:10:30.184Z,18.43
2018-05-16T09:12:59.279Z,13.70
2018-05-16T09:15:28.419Z,11.27
2018-05-16T09:17:56.771Z,14.03
2018-05-16T09:20:25.107Z,33.23
2018-05-16T09:22:53.728Z,12.00
2018-05-16T09:25:22.041Z,15.43
2018-05-16T09:27:50.382Z,10.03
2018-05-16T09:30:19.505Z,22.67
2018-05-16T09:32:47.860Z,13.17
2018-05-16T09:35:16.196Z,15.50
2018-05-16T09:37:44.569Z,8.30
2018-05-16T09:40:12.934Z,12.90
2018-05-16T09:42:41.306Z,15.87
2018-05-16T09:45:09.740Z,11.60
2018-05-16T09:47:38.121Z,13.00
2018-05-16T09:50:06.474Z,9.93
2018-05-16T09:52:34.837Z,7.33
2018-05-16T09:55:03.174Z,7.30
2018-05-16T09:57:31.517Z,7.40
2018-05-16T09:59:59.862Z,8.70
2018-05-16T10:02:28.239Z,9.00
2018-05-16T10:04:56.548Z,12.67
2018-05-16T10:07:25.241Z,7.77
2018-05-16T10:09:53.613Z,8.50
2018-05-16T10:12:21.928Z,15.20
2018-05-16T10:14:50.277Z,25.10
2018-05-16T10:17:18.625Z,20.70
2018-05-16T10:19:46.998Z,10.83
2018-05-16T10:22:15.422Z,21.30
2018-05-16T10:24:43.796Z,13.93
2018-05-16T10:27:12.152Z,20.63
2018-05-16T10:29:40.892Z,19.33
2018-05-16T10:32:09.247Z,17.83
2018-05-16T10:34:37.704Z,13.83
2018-05-16T10:37:12.664Z,8.47
2018-05-16T10:39:41.061Z,12.80
2018-05-16T10:42:10.185Z,7.30
2018-05-16T10:44:38.540Z,7.93
2018-05-16T10:47:06.871Z,8.67
2018-05-16T10:49:35.204Z,7.53
2018-05-16T10:52:04.609Z,7.40
2018-05-16T10:54:33.748Z,7.90
2018-05-16T10:57:02.096Z,10.83
2018-05-16T10:59:31.216Z,12.87
2018-05-16T11:01:59.562Z,20.80
2018-05-16T11:04:28.650Z,20.93
2018-05-16T11:06:56.994Z,17.00
2018-05-16T11:09:25.320Z,9.77
2018-05-16T11:11:54.411Z,12.60
2018-05-16T11:14:23.204Z,13.83
2018-05-16T11:16:51.524Z,11.53
2018-05-16T11:19:19.838Z,11.43
2018-05-16T11:21:48.233Z,24.17
2018-05-16T11:24:16.573Z,21.30
2018-05-16T11:26:44.912Z,10.80
2018-05-16T11:29:13.252Z,9.07
2018-05-16T11:31:41.613Z,19.97
2018-05-16T11:34:09.985Z,11.57
2018-05-16T11:36:38.510Z,15.03
2018-05-16T11:39:07.584Z,14.73
2018-05-16T11:41:35.924Z,10.73
2018-05-16T11:44:04.283Z,6.10
2018-05-16T11:46:32.632Z,17.43
2018-05-16T11:49:00.933Z,5.80
2018-05-16T11:51:30.092Z,25.67
2018-05-16T11:53:58.462Z,30.73
2018-05-16T11:56:26.796Z,5.97
2018-05-16T11:58:55.517Z,7.90
2018-05-16T12:01:23.845Z,6.20
2018-05-16T12:03:52.956Z,6.80
2018-05-16T12:06:21.355Z,6.53
2018-05-16T12:08:49.673Z,10.83
2018-05-16T12:11:18.080Z,7.40
2018-05-16T12:13:46.477Z,12.53
2018-05-16T12:16:14.797Z,6.40
2018-05-16T12:18:43.135Z,9.57
2018-05-16T12:21:12.209Z,9.73
2018-05-16T12:23:41.504Z,8.30
2018-05-16T12:26:10.618Z,28.13
2018-05-16T12:28:38.982Z,6.13
2018-05-16T12:31:08.100Z,5.33
2018-05-16T12:33:36.452Z,14.03
2018-05-16T12:36:04.830Z,17.60
2018-05-16T12:38:33.161Z,13.37
2018-05-16T12:41:01.508Z,7.97
2018-05-16T12:43:32.958Z,5.60
2018-05-16T12:46:02.089Z,5.67
2018-05-16T12:48:30.419Z,11.23
2018-05-16T12:50:58.811Z,15.83
2018-05-16T12:53:27.906Z,16.87
2018-05-16T12:55:57.009Z,7.90
2018-05-16T12:58:26.138Z,13.00
2018-05-16T13:00:54.463Z,6.10
2018-05-16T13:03:22.794Z,7.50
2018-05-16T13:05:51.539Z,7.70
2018-05-16T13:08:20.644Z,6.90
2018-05-16T13:10:49.747Z,5.63
2018-05-16T13:13:18.108Z,9.53
2018-05-16T13:15:47.217Z,8.60
2018-05-16T13:18:15.532Z,9.03
2018-05-16T13:20:43.872Z,17.73
2018-05-16T13:23:12.523Z,9.00
2018-05-16T13:25:40.839Z,25.87
2018-05-16T13:31:19.508Z,5.60
2018-05-16T13:33:47.933Z,27.83
2018-05-16T13:36:16.313Z,5.73
2018-05-16T13:38:44.597Z,17.10
2018-05-16T13:41:12.964Z,14.83
2018-05-16T13:43:41.302Z,5.97
2018-05-16T13:46:09.667Z,5.53
2018-05-16T13:48:38.435Z,9.50
2018-05-16T13:51:06.763Z,9.10
2018-05-16T13:53:35.193Z,5.70
2018-05-16T13:56:03.527Z,12.63
2018-05-16T13:58:31.866Z,15.43
2018-05-16T14:01:00.176Z,5.77
2018-05-16T14:03:28.565Z,6.90
2018-05-16T14:05:56.888Z,10.33
2018-05-16T14:08:25.972Z,9.90
2018-05-16T14:10:54.418Z,5.40
2018-05-16T14:15:57.202Z,6.03
2018-05-16T14:18:25.553Z,11.53
2018-05-16T14:23:56.810Z,13.30
2018-05-16T14:26:25.240Z,18.83
2018-05-16T14:28:53.588Z,11.30
2018-05-16T14:31:22.694Z,5.80
2018-05-16T14:34:04.276Z,7.80
2018-05-16T14:36:36.328Z,8.87
2018-05-16T14:39:05.560Z,12.80
2018-05-16T14:41:33.897Z,13.23
2018-05-16T14:44:02.253Z,8.53
2018-05-16T14:46:30.729Z,15.33
2018-05-16T14:48:59.072Z,7.53
2018-05-16T14:51:27.417Z,11.27
2018-05-16T14:53:55.819Z,15.73
2018-05-16T14:56:24.143Z,19.43
2018-05-16T14:58:52.479Z,7.87
2018-05-16T15:01:20.850Z,13.70
2018-05-16T15:03:49.956Z,15.33
2018-05-16T15:06:18.270Z,13.83
2018-05-16T15:08:47.824Z,14.90
2018-05-16T15:11:16.141Z,8.43
2018-05-16T15:13:45.232Z,12.83
2018-05-16T15:16:13.576Z,6.73
2018-05-16T15:18:42.645Z,12.33
2018-05-16T15:21:10.999Z,11.73
2018-05-16T15:23:39.392Z,8.20
2018-05-16T15:26:07.715Z,10.30
2018-05-16T15:28:36.820Z,6.40
2018-05-16T15:31:05.421Z,11.93
2018-05-16T15:33:33.758Z,10.27
2018-05-16T15:36:02.828Z,9.30
2018-05-16T15:38:31.240Z,17.87
2018-05-16T15:40:59.524Z,12.00
2018-05-16T15:43:28.633Z,17.43
2018-05-16T15:45:57.712Z,7.40
2018-05-16T15:48:26.822Z,17.23
2018-05-16T15:50:55.130Z,6.07
2018-05-16T15:53:23.971Z,6.73
2018-05-16T15:55:53.058Z,10.60
2018-05-16T15:58:21.400Z,6.00
2018-05-16T16:00:49.778Z,7.13
2018-05-16T16:03:18.107Z,8.93
2018-05-16T16:05:46.472Z,16.17
2018-05-16T16:08:14.978Z,6.63
2018-05-16T16:10:43.259Z,6.77
2018-05-16T16:13:12.352Z,15.60
2018-05-16T16:15:41.721Z,9.10
2018-05-16T16:18:10.046Z,16.63
2018-05-16T16:20:38.390Z,15.93
2018-05-16T16:23:06.756Z,9.20
2018-05-16T16:25:35.106Z,13.47
2018-05-16T16:28:03.425Z,11.10
2018-05-16T16:30:31.790Z,18.57
2018-05-16T16:33:00.100Z,15.33
2018-05-16T16:35:28.448Z,18.83
2018-05-16T16:37:56.867Z,22.83
2018-05-16T16:40:25.203Z,7.37
2018-05-16T16:42:53.579Z,8.60
2018-05-16T16:45:21.971Z,15.33
2018-05-16T16:47:50.312Z,7.83
2018-05-16T16:50:18.682Z,13.17
2018-05-16T16:52:47.033Z,12.00
2018-05-16T16:55:16.155Z,7.80
2018-05-16T16:57:44.481Z,19.30
2018-05-16T17:00:13.389Z,8.10
2018-05-16T17:02:41.712Z,6.30
2018-05-16T17:05:10.200Z,19.13
2018-05-16T17:07:38.588Z,8.80
2018-05-16T17:10:06.945Z,15.13
2018-05-16T17:12:35.268Z,23.13
2018-05-16T17:15:04.410Z,12.73
2018-05-16T17:17:32.730Z,18.47
2018-05-16T17:20:01.057Z,11.63
2018-05-16T17:22:29.743Z,6.97
2018-05-16T17:24:58.053Z,7.83
2018-05-16T17:27:26.371Z,10.60
2018-05-16T17:29:54.749Z,17.43
2018-05-16T17:32:23.089Z,8.17
2018-05-16T17:34:51.443Z,13.30
2018-05-16T17:37:20.575Z,8.83
2018-05-16T17:39:48.899Z,9.67
2018-05-16T17:42:17.264Z,8.70
2018-05-16T17:44:45.963Z,13.53
2018-05-16T17:47:15.065Z,15.23
2018-05-16T17:49:44.187Z,12.33
2018-05-16T17:52:12.549Z,9.93
2018-05-16T17:54:41.628Z,12.00
2018-05-16T17:57:09.940Z,7.07
2018-05-16T17:59:38.289Z,19.50
2018-05-16T18:02:07.420Z,11.93
2018-05-16T18:04:35.791Z,11.10
2018-05-16T18:07:04.347Z,10.50
2018-05-16T18:09:33.486Z,9.40
2018-05-16T18:12:01.865Z,8.50
2018-05-16T18:18:02.194Z,13.83
2018-05-16T18:20:30.574Z,15.57
2018-05-16T18:22:58.928Z,11.37
2018-05-16T18:25:27.271Z,17.50
2018-05-16T18:27:56.235Z,18.90
2018-05-16T18:30:24.562Z,15.87
2018-05-16T18:32:52.871Z,12.50
2018-05-16T18:35:21.976Z,12.30
2018-05-16T18:37:51.056Z,20.67
2018-05-16T18:40:19.400Z,7.83
2018-05-16T18:42:47.746Z,9.27
2018-05-16T18:45:16.078Z,10.93
2018-05-16T18:47:44.415Z,10.03
2018-05-16T18:50:12.862Z,17.50
2018-05-16T18:52:42.017Z,10.13
2018-05-16T18:55:10.343Z,9.60
2018-05-16T18:57:39.465Z,10.60
2018-05-16T19:00:07.794Z,8.43
2018-05-16T19:02:36.107Z,12.83
2018-05-16T19:05:04.516Z,9.70
2018-05-16T19:07:32.949Z,14.00
2018-05-16T19:10:01.319Z,15.50
2018-05-16T19:12:29.869Z,10.73
2018-05-16T19:14:58.220Z,12.87
2018-05-16T19:17:26.552Z,16.87
2018-05-16T19:19:54.929Z,11.93
2018-05-16T19:22:23.285Z,15.83
2018-05-16T19:24:51.624Z,15.63
2018-05-16T19:27:20.005Z,12.43
2018-05-16T19:29:48.351Z,7.83
2018-05-16T19:32:16.676Z,13.73
2018-05-16T19:34:45.426Z,7.20
2018-05-16T19:37:13.757Z,11.47
2018-05-16T19:39:42.110Z,15.13
2018-05-16T19:42:10.458Z,6.97
2018-05-16T19:44:38.790Z,8.77
2018-05-16T19:47:07.129Z,12.63
2018-05-16T19:49:35.518Z,7.27
2018-05-16T19:52:04.274Z,11.07
2018-05-16T19:54:32.579Z,7.37
2018-05-16T19:57:02.180Z,15.57
2018-05-16T19:59:30.541Z,13.77
2018-05-16T20:01:58.904Z,11.13
2018-05-16T20:04:27.245Z,11.90
2018-05-16T20:06:55.594Z,27.80
2018-05-16T20:09:24.669Z,19.93
2018-05-16T20:11:53.048Z,22.30
2018-05-16T20:14:21.397Z,17.00
2018-05-16T20:16:49.790Z,25.30
2018-05-16T20:19:18.366Z,12.93
2018-05-16T20:21:46.700Z,26.10
2018-05-16T20:24:15.776Z,36.00
2018-05-16T20:26:44.136Z,46.13
2018-05-16T20:29:12.487Z,34.93
2018-05-16T20:31:40.838Z,34.33
2018-05-16T20:34:09.975Z,43.53
2018-05-16T20:36:38.310Z,56.80
2018-05-16T20:39:06.639Z,32.83
2018-05-16T20:41:35.111Z,42.93
2018-05-16T20:44:03.493Z,53.27
2018-05-16T20:46:31.850Z,45.50
2018-05-16T20:49:00.207Z,36.73
2018-05-16T20:51:30.091Z,36.47
2018-05-16T20:53:58.594Z,38.80
2018-05-16T20:56:27.694Z,60.07
2018-05-16T20:58:56.851Z,46.57
2018-05-16T21:01:25.147Z,58.30
2018-05-16T21:03:53.639Z,48.23
2018-05-16T21:06:21.992Z,42.30
2018-05-16T21:08:50.332Z,39.43
2018-05-16T21:11:18.773Z,53.13
2018-05-16T21:13:47.038Z,33.80
2018-05-16T21:16:15.360Z,33.43
2018-05-16T21:18:43.737Z,51.47
2018-05-16T21:21:12.102Z,40.27
2018-05-16T21:23:41.224Z,40.30
2018-05-16T21:26:09.657Z,35.77
2018-05-16T21:28:38.016Z,38.93
2018-05-16T21:31:06.346Z,33.17
2018-05-16T21:33:34.715Z,32.43
2018-05-16T21:36:03.821Z,47.67
2018-05-16T21:38:33.545Z,42.83
2018-05-16T21:41:01.977Z,39.13
2018-05-16T21:43:30.286Z,49.53
2018-05-16T21:45:59.401Z,45.00
2018-05-16T21:48:27.929Z,48.33
2018-05-16T21:50:56.268Z,31.30
2018-05-16T21:53:24.577Z,47.97
2018-05-16T21:55:52.965Z,47.40
2018-05-16T21:58:21.314Z,46.90
2018-05-16T22:00:49.625Z,41.70
2018-05-16T22:03:17.981Z,34.10
2018-05-16T22:05:46.322Z,29.47
2018-05-16T22:08:15.407Z,39.50
2018-05-16T22:10:44.295Z,34.50
2018-05-16T22:13:12.618Z,45.07
2018-05-16T22:15:40.949Z,38.67
2018-05-16T22:18:09.295Z,26.70
2018-05-16T22:20:37.635Z,37.07
2018-05-16T22:23:05.953Z,39.97
2018-05-16T22:25:34.279Z,40.30
2018-05-16T22:28:03.995Z,58.70
2018-05-16T22:30:38.914Z,33.50
2018-05-16T22:33:13.529Z,45.20
2018-05-16T22:35:47.431Z,40.77
2018-05-16T22:38:21.103Z,31.40
2018-05-16T22:40:54.989Z,37.23
2018-05-16T22:43:23.319Z,44.07
2018-05-16T22:46:02.996Z,44.07
2018-05-16T22:48:32.216Z,58.53
2018-05-16T22:51:00.811Z,43.03
2018-05-16T22:53:29.154Z,43.50
2018-05-16T22:55:58.263Z,39.90
2018-05-16T22:58:26.608Z,40.30
2018-05-16T23:00:55.157Z,49.27
2018-05-16T23:03:23.520Z,46.20
2018-05-16T23:05:51.932Z,29.40
2018-05-16T23:08:20.648Z,28.80
2018-05-16T23:10:49.264Z,33.60
2018-05-16T23:13:17.604Z,42.10
2018-05-16T23:15:45.970Z,39.70
2018-05-16T23:18:14.333Z,38.90
2018-05-16T23:20:42.694Z,37.83
2018-05-16T23:23:11.231Z,43.23
2018-05-16T23:25:39.536Z,28.27
2018-05-16T23:28:07.934Z,44.90
2018-05-16T23:30:36.368Z,43.57
2018-05-16T23:33:04.676Z,35.93
2018-05-16T23:35:34.125Z,46.23
2018-05-16T23:38:02.488Z,36.07
2018-05-16T23:40:30.827Z,43.97
2018-05-16T23:42:59.155Z,32.80
2018-05-16T23:45:27.518Z,44.27
2018-05-16T23:47:55.832Z,40.47
2018-05-16T23:50:24.147Z,48.57
2018-05-16T23:52:53.210Z,24.27
2018-05-16T23:55:21.541Z,43.27
2018-05-16T23:57:49.867Z,38.90
